sensor_id;sensor_type;location;lat;lon;timestamp;P1;durP1;ratioP1;P2;durP2;ratioP2
8060;SDS011;4073;42.626;25.386;2022-08-19T00:01:26;11.67;;;9.73;;
8060;SDS011;4073;42.626;25.386;2022-08-19T00:03:54;12.63;;;11.33;;
8060;SDS011;4073;42.626;25.386;2022-08-19T00:06:22;11.47;;;10.37;;
8060;SDS011;4073;42.626;25.386;2022-08-19T00:08:48;12.00;;;10.80;;
8060;SDS011;4073;42.626;25.386;2022-08-19T00:11:13;10.90;;;10.00;;
8060;SDS011;4073;42.626;25.386;2022-08-19T00:13:39;9.37;;;8.47;;
8060;SDS011;4073;42.626;25.386;2022-08-19T00:16:05;10.17;;;9.17;;
8060;SDS011;4073;42.626;25.386;2022-08-19T00:18:31;9.53;;;8.63;;
8060;SDS011;4073;42.626;25.386;2022-08-19T00:20:58;10.50;;;9.33;;
8060;SDS011;4073;42.626;25.386;2022-08-19T00:23:24;10.13;;;8.87;;
8060;SDS011;4073;42.626;25.386;2022-08-19T00:25:51;10.37;;;9.47;;
8060;SDS011;4073;42.626;25.386;2022-08-19T00:28:17;10.93;;;9.60;;
8060;SDS011;4073;42.626;25.386;2022-08-19T00:30:43;11.10;;;9.27;;
8060;SDS011;4073;42.626;25.386;2022-08-19T00:33:09;10.40;;;9.40;;
8060;SDS011;4073;42.626;25.386;2022-08-19T00:35:35;10.50;;;9.40;;
8060;SDS011;4073;42.626;25.386;2022-08-19T00:38:02;11.57;;;8.57;;
8060;SDS011;4073;42.626;25.386;2022-08-19T00:40:27;9.83;;;8.83;;
8060;SDS011;4073;42.626;25.386;2022-08-19T00:42:53;9.90;;;9.00;;
8060;SDS011;4073;42.626;25.386;2022-08-19T00:45:20;10.70;;;9.70;;
8060;SDS011;4073;42.626;25.386;2022-08-19T00:47:47;10.10;;;9.03;;
8060;SDS011;4073;42.626;25.386;2022-08-19T00:50:14;10.50;;;9.50;;
8060;SDS011;4073;42.626;25.386;2022-08-19T00:52:42;9.97;;;8.83;;
8060;SDS011;4073;42.626;25.386;2022-08-19T00:55:16;10.97;;;9.87;;
8060;SDS011;4073;42.626;25.386;2022-08-19T00:57:48;12.17;;;9.20;;
8060;SDS011;4073;42.626;25.386;2022-08-19T01:00:21;10.97;;;9.40;;
8060;SDS011;4073;42.626;25.386;2022-08-19T01:02:48;10.20;;;9.23;;
8060;SDS011;4073;42.626;25.386;2022-08-19T01:05:16;10.30;;;9.20;;
8060;SDS011;4073;42.626;25.386;2022-08-19T01:07:45;10.37;;;9.37;;
8060;SDS011;4073;42.626;25.386;2022-08-19T01:10:15;10.13;;;9.13;;
8060;SDS011;4073;42.626;25.386;2022-08-19T01:12:44;9.67;;;8.67;;
8060;SDS011;4073;42.626;25.386;2022-08-19T01:15:11;9.70;;;8.73;;
8060;SDS011;4073;42.626;25.386;2022-08-19T01:17:39;10.17;;;9.07;;
8060;SDS011;4073;42.626;25.386;2022-08-19T01:20:07;9.50;;;8.60;;
8060;SDS011;4073;42.626;25.386;2022-08-19T01:22:39;9.93;;;9.00;;
8060;SDS011;4073;42.626;25.386;2022-08-19T01:25:07;9.80;;;8.73;;
8060;SDS011;4073;42.626;25.386;2022-08-19T01:27:42;9.80;;;8.80;;
8060;SDS011;4073;42.626;25.386;2022-08-19T01:30:12;10.90;;;9.03;;
8060;SDS011;4073;42.626;25.386;2022-08-19T01:32:49;10.57;;;9.47;;
8060;SDS011;4073;42.626;25.386;2022-08-19T01:35:17;11.33;;;9.60;;
8060;SDS011;4073;42.626;25.386;2022-08-19T01:37:44;10.40;;;9.47;;
8060;SDS011;4073;42.626;25.386;2022-08-19T01:40:14;11.20;;;9.27;;
8060;SDS011;4073;42.626;25.386;2022-08-19T01:42:40;10.83;;;9.83;;
8060;SDS011;4073;42.626;25.386;2022-08-19T01:45:06;10.27;;;9.40;;
8060;SDS011;4073;42.626;25.386;2022-08-19T01:47:34;11.13;;;10.13;;
8060;SDS011;4073;42.626;25.386;2022-08-19T01:50:01;11.30;;;10.23;;
8060;SDS011;4073;42.626;25.386;2022-08-19T01:52:27;11.97;;;10.83;;
8060;SDS011;4073;42.626;25.386;2022-08-19T01:54:53;11.43;;;10.40;;
8060;SDS011;4073;42.626;25.386;2022-08-19T01:57:18;11.40;;;10.40;;
8060;SDS011;4073;42.626;25.386;2022-08-19T01:59:44;12.37;;;11.27;;
8060;SDS011;4073;42.626;25.386;2022-08-19T02:02:10;12.50;;;11.30;;
8060;SDS011;4073;42.626;25.386;2022-08-19T02:04:36;11.80;;;10.73;;
8060;SDS011;4073;42.626;25.386;2022-08-19T02:07:05;12.53;;;11.27;;
8060;SDS011;4073;42.626;25.386;2022-08-19T02:09:32;11.93;;;10.73;;
8060;SDS011;4073;42.626;25.386;2022-08-19T02:11:58;11.97;;;10.80;;
8060;SDS011;4073;42.626;25.386;2022-08-19T02:14:24;12.00;;;11.00;;
8060;SDS011;4073;42.626;25.386;2022-08-19T02:16:50;11.83;;;10.80;;
8060;SDS011;4073;42.626;25.386;2022-08-19T02:19:15;14.77;;;11.77;;
8060;SDS011;4073;42.626;25.386;2022-08-19T02:21:41;13.67;;;12.20;;
8060;SDS011;4073;42.626;25.386;2022-08-19T02:24:06;12.57;;;11.37;;
8060;SDS011;4073;42.626;25.386;2022-08-19T02:26:32;12.37;;;11.20;;
8060;SDS011;4073;42.626;25.386;2022-08-19T02:28:58;12.57;;;11.47;;
8060;SDS011;4073;42.626;25.386;2022-08-19T02:31:24;11.73;;;10.73;;
8060;SDS011;4073;42.626;25.386;2022-08-19T02:33:50;12.33;;;11.17;;
8060;SDS011;4073;42.626;25.386;2022-08-19T02:36:17;12.17;;;11.03;;
8060;SDS011;4073;42.626;25.386;2022-08-19T02:38:43;12.33;;;11.10;;
8060;SDS011;4073;42.626;25.386;2022-08-19T02:41:16;12.20;;;11.07;;
8060;SDS011;4073;42.626;25.386;2022-08-19T02:43:43;11.37;;;10.00;;
8060;SDS011;4073;42.626;25.386;2022-08-19T02:46:18;11.73;;;10.77;;
8060;SDS011;4073;42.626;25.386;2022-08-19T02:48:47;11.93;;;10.77;;
8060;SDS011;4073;42.626;25.386;2022-08-19T02:51:22;11.20;;;10.20;;
8060;SDS011;4073;42.626;25.386;2022-08-19T02:53:51;11.50;;;10.37;;
8060;SDS011;4073;42.626;25.386;2022-08-19T02:56:18;13.13;;;11.83;;
8060;SDS011;4073;42.626;25.386;2022-08-19T02:58:44;11.37;;;10.30;;
8060;SDS011;4073;42.626;25.386;2022-08-19T03:01:10;11.33;;;10.23;;
8060;SDS011;4073;42.626;25.386;2022-08-19T03:03:44;11.20;;;10.03;;
8060;SDS011;4073;42.626;25.386;2022-08-19T03:06:13;12.10;;;10.90;;
8060;SDS011;4073;42.626;25.386;2022-08-19T03:08:41;11.20;;;10.13;;
8060;SDS011;4073;42.626;25.386;2022-08-19T03:11:42;13.07;;;11.27;;
8060;SDS011;4073;42.626;25.386;2022-08-19T03:14:01;10.80;;;9.80;;
8060;SDS011;4073;42.626;25.386;2022-08-19T03:16:28;10.57;;;9.43;;
8060;SDS011;4073;42.626;25.386;2022-08-19T03:18:56;10.77;;;9.57;;
8060;SDS011;4073;42.626;25.386;2022-08-19T03:21:25;10.77;;;9.67;;
8060;SDS011;4073;42.626;25.386;2022-08-19T03:23:54;10.50;;;9.50;;
8060;SDS011;4073;42.626;25.386;2022-08-19T03:26:21;10.37;;;9.37;;
8060;SDS011;4073;42.626;25.386;2022-08-19T03:28:47;10.87;;;9.87;;
8060;SDS011;4073;42.626;25.386;2022-08-19T03:31:15;11.70;;;10.60;;
8060;SDS011;4073;42.626;25.386;2022-08-19T03:33:42;11.83;;;10.77;;
8060;SDS011;4073;42.626;25.386;2022-08-19T03:36:10;12.80;;;10.83;;
8060;SDS011;4073;42.626;25.386;2022-08-19T03:38:46;11.43;;;10.33;;
8060;SDS011;4073;42.626;25.386;2022-08-19T03:41:15;12.53;;;10.40;;
8060;SDS011;4073;42.626;25.386;2022-08-19T03:43:46;12.33;;;11.07;;
8060;SDS011;4073;42.626;25.386;2022-08-19T03:46:13;12.03;;;10.93;;
8060;SDS011;4073;42.626;25.386;2022-08-19T03:48:45;11.77;;;10.70;;
8060;SDS011;4073;42.626;25.386;2022-08-19T03:51:19;11.50;;;10.27;;
8060;SDS011;4073;42.626;25.386;2022-08-19T03:53:46;11.73;;;10.63;;
8060;SDS011;4073;42.626;25.386;2022-08-19T03:56:12;11.23;;;10.07;;
8060;SDS011;4073;42.626;25.386;2022-08-19T03:58:39;11.03;;;10.03;;
8060;SDS011;4073;42.626;25.386;2022-08-19T04:01:10;11.37;;;10.37;;
8060;SDS011;4073;42.626;25.386;2022-08-19T04:03:37;11.27;;;10.13;;
8060;SDS011;4073;42.626;25.386;2022-08-19T04:06:12;11.57;;;10.40;;
8060;SDS011;4073;42.626;25.386;2022-08-19T04:08:43;12.57;;;10.37;;
8060;SDS011;4073;42.626;25.386;2022-08-19T04:11:11;10.93;;;9.60;;
8060;SDS011;4073;42.626;25.386;2022-08-19T04:13:38;10.73;;;9.50;;
8060;SDS011;4073;42.626;25.386;2022-08-19T04:16:04;12.93;;;10.27;;
8060;SDS011;4073;42.626;25.386;2022-08-19T04:18:31;11.00;;;10.00;;
8060;SDS011;4073;42.626;25.386;2022-08-19T04:20:58;10.83;;;9.67;;
8060;SDS011;4073;42.626;25.386;2022-08-19T04:23:24;10.17;;;9.20;;
8060;SDS011;4073;42.626;25.386;2022-08-19T04:25:50;11.47;;;9.30;;
8060;SDS011;4073;42.626;25.386;2022-08-19T04:28:15;9.57;;;8.73;;
8060;SDS011;4073;42.626;25.386;2022-08-19T04:30:43;11.13;;;8.90;;
8060;SDS011;4073;42.626;25.386;2022-08-19T04:33:11;10.07;;;9.10;;
8060;SDS011;4073;42.626;25.386;2022-08-19T04:35:39;10.53;;;9.50;;
8060;SDS011;4073;42.626;25.386;2022-08-19T04:38:06;11.17;;;9.27;;
8060;SDS011;4073;42.626;25.386;2022-08-19T04:40:32;10.20;;;9.20;;
8060;SDS011;4073;42.626;25.386;2022-08-19T04:43:16;9.27;;;8.40;;
8060;SDS011;4073;42.626;25.386;2022-08-19T04:45:43;11.17;;;9.20;;
8060;SDS011;4073;42.626;25.386;2022-08-19T04:48:09;10.17;;;9.13;;
8060;SDS011;4073;42.626;25.386;2022-08-19T04:50:35;14.60;;;9.30;;
8060;SDS011;4073;42.626;25.386;2022-08-19T04:53:00;10.20;;;9.20;;
8060;SDS011;4073;42.626;25.386;2022-08-19T04:55:26;11.70;;;8.70;;
8060;SDS011;4073;42.626;25.386;2022-08-19T04:57:51;11.27;;;10.10;;
8060;SDS011;4073;42.626;25.386;2022-08-19T05:00:17;10.47;;;9.57;;
8060;SDS011;4073;42.626;25.386;2022-08-19T05:02:42;8.97;;;8.10;;
8060;SDS011;4073;42.626;25.386;2022-08-19T05:05:08;9.13;;;8.33;;
8060;SDS011;4073;42.626;25.386;2022-08-19T05:07:34;9.37;;;8.57;;
8060;SDS011;4073;42.626;25.386;2022-08-19T05:10:00;10.50;;;8.37;;
8060;SDS011;4073;42.626;25.386;2022-08-19T05:12:25;11.47;;;8.80;;
8060;SDS011;4073;42.626;25.386;2022-08-19T05:14:53;9.77;;;8.77;;
8060;SDS011;4073;42.626;25.386;2022-08-19T05:17:19;10.20;;;9.20;;
8060;SDS011;4073;42.626;25.386;2022-08-19T05:19:45;9.37;;;8.47;;
8060;SDS011;4073;42.626;25.386;2022-08-19T05:22:28;10.03;;;8.57;;
8060;SDS011;4073;42.626;25.386;2022-08-19T05:24:58;10.33;;;9.27;;
8060;SDS011;4073;42.626;25.386;2022-08-19T05:27:25;11.67;;;8.57;;
8060;SDS011;4073;42.626;25.386;2022-08-19T05:29:50;8.73;;;7.93;;
8060;SDS011;4073;42.626;25.386;2022-08-19T05:32:16;11.90;;;9.40;;
8060;SDS011;4073;42.626;25.386;2022-08-19T05:34:41;9.87;;;8.33;;
8060;SDS011;4073;42.626;25.386;2022-08-19T05:37:07;10.13;;;8.73;;
8060;SDS011;4073;42.626;25.386;2022-08-19T05:39:34;9.37;;;8.50;;
8060;SDS011;4073;42.626;25.386;2022-08-19T05:42:02;10.43;;;9.07;;
8060;SDS011;4073;42.626;25.386;2022-08-19T05:44:32;10.40;;;9.40;;
8060;SDS011;4073;42.626;25.386;2022-08-19T05:47:00;9.77;;;8.77;;
8060;SDS011;4073;42.626;25.386;2022-08-19T05:49:27;9.53;;;8.60;;
8060;SDS011;4073;42.626;25.386;2022-08-19T05:51:54;11.37;;;9.03;;
8060;SDS011;4073;42.626;25.386;2022-08-19T05:54:20;11.40;;;8.63;;
8060;SDS011;4073;42.626;25.386;2022-08-19T05:56:48;13.63;;;8.17;;
8060;SDS011;4073;42.626;25.386;2022-08-19T05:59:14;9.40;;;8.43;;
8060;SDS011;4073;42.626;25.386;2022-08-19T06:01:42;9.80;;;8.83;;
8060;SDS011;4073;42.626;25.386;2022-08-19T06:04:10;9.17;;;8.27;;
8060;SDS011;4073;42.626;25.386;2022-08-19T06:06:38;10.00;;;7.93;;
8060;SDS011;4073;42.626;25.386;2022-08-19T06:09:04;8.30;;;7.60;;
8060;SDS011;4073;42.626;25.386;2022-08-19T06:11:42;9.23;;;7.67;;
8060;SDS011;4073;42.626;25.386;2022-08-19T06:14:14;9.60;;;8.60;;
8060;SDS011;4073;42.626;25.386;2022-08-19T06:16:43;9.53;;;8.53;;
8060;SDS011;4073;42.626;25.386;2022-08-19T06:19:11;9.20;;;8.20;;
8060;SDS011;4073;42.626;25.386;2022-08-19T06:21:39;9.13;;;8.33;;
8060;SDS011;4073;42.626;25.386;2022-08-19T06:24:07;9.23;;;8.43;;
8060;SDS011;4073;42.626;25.386;2022-08-19T06:26:35;8.80;;;8.00;;
8060;SDS011;4073;42.626;25.386;2022-08-19T06:29:03;8.50;;;7.70;;
8060;SDS011;4073;42.626;25.386;2022-08-19T06:31:31;8.10;;;7.40;;
8060;SDS011;4073;42.626;25.386;2022-08-19T06:33:59;9.13;;;7.57;;
8060;SDS011;4073;42.626;25.386;2022-08-19T06:36:27;9.57;;;8.67;;
8060;SDS011;4073;42.626;25.386;2022-08-19T06:39:06;11.77;;;8.57;;
8060;SDS011;4073;42.626;25.386;2022-08-19T06:41:35;10.13;;;8.37;;
8060;SDS011;4073;42.626;25.386;2022-08-19T06:44:05;8.20;;;7.50;;
8060;SDS011;4073;42.626;25.386;2022-08-19T06:46:31;10.63;;;8.17;;
8060;SDS011;4073;42.626;25.386;2022-08-19T06:48:57;13.10;;;8.27;;
8060;SDS011;4073;42.626;25.386;2022-08-19T06:51:23;12.87;;;9.17;;
8060;SDS011;4073;42.626;25.386;2022-08-19T06:53:50;11.40;;;9.63;;
8060;SDS011;4073;42.626;25.386;2022-08-19T06:56:18;9.90;;;8.40;;
8060;SDS011;4073;42.626;25.386;2022-08-19T06:58:46;9.80;;;8.67;;
8060;SDS011;4073;42.626;25.386;2022-08-19T07:01:15;12.53;;;10.40;;
8060;SDS011;4073;42.626;25.386;2022-08-19T07:03:41;9.50;;;8.50;;
8060;SDS011;4073;42.626;25.386;2022-08-19T07:06:10;11.17;;;8.43;;
8060;SDS011;4073;42.626;25.386;2022-08-19T07:08:39;9.60;;;8.60;;
8060;SDS011;4073;42.626;25.386;2022-08-19T07:11:06;11.50;;;7.90;;
8060;SDS011;4073;42.626;25.386;2022-08-19T07:13:33;12.30;;;9.17;;
8060;SDS011;4073;42.626;25.386;2022-08-19T07:16:05;13.53;;;9.27;;
8060;SDS011;4073;42.626;25.386;2022-08-19T07:18:32;10.00;;;8.93;;
8060;SDS011;4073;42.626;25.386;2022-08-19T07:21:05;10.60;;;8.97;;
8060;SDS011;4073;42.626;25.386;2022-08-19T07:23:33;12.07;;;8.73;;
8060;SDS011;4073;42.626;25.386;2022-08-19T07:26:05;8.57;;;7.87;;
8060;SDS011;4073;42.626;25.386;2022-08-19T07:28:32;9.10;;;8.00;;
8060;SDS011;4073;42.626;25.386;2022-08-19T07:30:57;9.93;;;8.33;;
8060;SDS011;4073;42.626;25.386;2022-08-19T07:33:22;8.70;;;7.90;;
8060;SDS011;4073;42.626;25.386;2022-08-19T07:35:48;8.40;;;7.60;;
8060;SDS011;4073;42.626;25.386;2022-08-19T07:38:14;14.77;;;8.77;;
8060;SDS011;4073;42.626;25.386;2022-08-19T07:40:40;8.60;;;7.37;;
8060;SDS011;4073;42.626;25.386;2022-08-19T07:43:06;10.17;;;8.23;;
8060;SDS011;4073;42.626;25.386;2022-08-19T07:45:31;11.50;;;8.23;;
8060;SDS011;4073;42.626;25.386;2022-08-19T07:47:57;11.93;;;7.97;;
8060;SDS011;4073;42.626;25.386;2022-08-19T07:50:23;8.40;;;7.63;;
8060;SDS011;4073;42.626;25.386;2022-08-19T07:52:48;9.07;;;8.10;;
8060;SDS011;4073;42.626;25.386;2022-08-19T07:55:15;9.00;;;8.10;;
8060;SDS011;4073;42.626;25.386;2022-08-19T07:57:43;11.87;;;7.73;;
8060;SDS011;4073;42.626;25.386;2022-08-19T08:00:08;8.53;;;7.83;;
8060;SDS011;4073;42.626;25.386;2022-08-19T08:02:34;14.17;;;8.13;;
8060;SDS011;4073;42.626;25.386;2022-08-19T08:05:00;7.87;;;7.17;;
8060;SDS011;4073;42.626;25.386;2022-08-19T08:07:54;9.33;;;7.50;;
8060;SDS011;4073;42.626;25.386;2022-08-19T08:10:39;7.73;;;7.03;;
8060;SDS011;4073;42.626;25.386;2022-08-19T08:13:05;8.00;;;7.30;;
8060;SDS011;4073;42.626;25.386;2022-08-19T08:15:31;7.50;;;6.73;;
8060;SDS011;4073;42.626;25.386;2022-08-19T08:17:56;7.50;;;6.83;;
8060;SDS011;4073;42.626;25.386;2022-08-19T08:20:22;8.30;;;7.37;;
8060;SDS011;4073;42.626;25.386;2022-08-19T08:22:49;7.23;;;6.63;;
8060;SDS011;4073;42.626;25.386;2022-08-19T08:25:33;7.63;;;6.93;;
8060;SDS011;4073;42.626;25.386;2022-08-19T08:28:01;7.70;;;6.90;;
8060;SDS011;4073;42.626;25.386;2022-08-19T08:30:29;9.30;;;6.67;;
8060;SDS011;4073;42.626;25.386;2022-08-19T08:32:57;6.93;;;6.23;;
8060;SDS011;4073;42.626;25.386;2022-08-19T08:35:23;7.50;;;6.90;;
8060;SDS011;4073;42.626;25.386;2022-08-19T08:37:49;7.50;;;6.80;;
8060;SDS011;4073;42.626;25.386;2022-08-19T08:40:31;8.30;;;6.57;;
8060;SDS011;4073;42.626;25.386;2022-08-19T08:48:41;7.50;;;6.33;;
8060;SDS011;4073;42.626;25.386;2022-08-19T08:51:20;7.40;;;6.70;;
8060;SDS011;4073;42.626;25.386;2022-08-19T08:54:23;8.97;;;6.83;;
8060;SDS011;4073;42.626;25.386;2022-08-19T08:56:54;7.47;;;6.70;;
8060;SDS011;4073;42.626;25.386;2022-08-19T08:59:33;7.40;;;6.70;;
8060;SDS011;4073;42.626;25.386;2022-08-19T09:02:02;9.90;;;6.80;;
8060;SDS011;4073;42.626;25.386;2022-08-19T09:04:29;6.87;;;6.27;;
8060;SDS011;4073;42.626;25.386;2022-08-19T09:06:57;6.50;;;5.53;;
8060;SDS011;4073;42.626;25.386;2022-08-19T09:10:46;7.13;;;6.43;;
8060;SDS011;4073;42.626;25.386;2022-08-19T09:15:35;7.17;;;6.43;;
8060;SDS011;4073;42.626;25.386;2022-08-19T09:18:09;6.93;;;6.37;;
8060;SDS011;4073;42.626;25.386;2022-08-19T09:20:34;7.50;;;6.90;;
8060;SDS011;4073;42.626;25.386;2022-08-19T09:23:00;6.70;;;6.10;;
8060;SDS011;4073;42.626;25.386;2022-08-19T09:25:26;6.77;;;6.20;;
8060;SDS011;4073;42.626;25.386;2022-08-19T09:27:52;6.63;;;6.10;;
8060;SDS011;4073;42.626;25.386;2022-08-19T09:30:23;6.50;;;5.87;;
8060;SDS011;4073;42.626;25.386;2022-08-19T09:32:51;7.63;;;6.20;;
8060;SDS011;4073;42.626;25.386;2022-08-19T09:35:18;6.50;;;6.00;;
8060;SDS011;4073;42.626;25.386;2022-08-19T09:37:47;6.77;;;6.17;;
8060;SDS011;4073;42.626;25.386;2022-08-19T09:40:14;6.37;;;5.77;;
8060;SDS011;4073;42.626;25.386;2022-08-19T09:42:40;5.97;;;5.30;;
8060;SDS011;4073;42.626;25.386;2022-08-19T09:45:08;6.80;;;6.20;;
8060;SDS011;4073;42.626;25.386;2022-08-19T09:47:35;8.50;;;5.87;;
8060;SDS011;4073;42.626;25.386;2022-08-19T09:50:03;6.07;;;5.57;;
8060;SDS011;4073;42.626;25.386;2022-08-19T09:52:30;6.83;;;5.40;;
8060;SDS011;4073;42.626;25.386;2022-08-19T09:54:56;7.23;;;5.23;;
8060;SDS011;4073;42.626;25.386;2022-08-19T09:57:21;8.80;;;6.20;;
8060;SDS011;4073;42.626;25.386;2022-08-19T09:59:47;5.97;;;5.57;;
8060;SDS011;4073;42.626;25.386;2022-08-19T10:02:13;6.60;;;5.80;;
8060;SDS011;4073;42.626;25.386;2022-08-19T10:04:38;6.20;;;5.63;;
8060;SDS011;4073;42.626;25.386;2022-08-19T10:07:22;5.70;;;5.30;;
8060;SDS011;4073;42.626;25.386;2022-08-19T10:09:48;5.47;;;5.07;;
8060;SDS011;4073;42.626;25.386;2022-08-19T10:12:13;6.27;;;5.63;;
8060;SDS011;4073;42.626;25.386;2022-08-19T10:14:40;5.67;;;5.07;;
8060;SDS011;4073;42.626;25.386;2022-08-19T10:17:06;7.60;;;6.97;;
8060;SDS011;4073;42.626;25.386;2022-08-19T10:19:31;6.63;;;6.10;;
8060;SDS011;4073;42.626;25.386;2022-08-19T10:22:02;6.10;;;5.50;;
8060;SDS011;4073;42.626;25.386;2022-08-19T10:24:29;6.00;;;5.40;;
8060;SDS011;4073;42.626;25.386;2022-08-19T10:26:56;6.10;;;5.57;;
8060;SDS011;4073;42.626;25.386;2022-08-19T10:29:21;8.33;;;5.17;;
8060;SDS011;4073;42.626;25.386;2022-08-19T10:31:47;5.43;;;5.03;;
8060;SDS011;4073;42.626;25.386;2022-08-19T10:34:12;5.80;;;5.40;;
8060;SDS011;4073;42.626;25.386;2022-08-19T10:36:38;9.97;;;5.77;;
8060;SDS011;4073;42.626;25.386;2022-08-19T10:39:05;5.43;;;5.03;;
8060;SDS011;4073;42.626;25.386;2022-08-19T10:41:34;5.97;;;5.40;;
8060;SDS011;4073;42.626;25.386;2022-08-19T10:44:06;5.50;;;5.10;;
8060;SDS011;4073;42.626;25.386;2022-08-19T10:46:35;6.33;;;5.73;;
8060;SDS011;4073;42.626;25.386;2022-08-19T10:49:03;5.50;;;5.10;;
8060;SDS011;4073;42.626;25.386;2022-08-19T10:51:29;6.20;;;5.00;;
8060;SDS011;4073;42.626;25.386;2022-08-19T10:54:14;6.33;;;5.70;;
8060;SDS011;4073;42.626;25.386;2022-08-19T10:56:40;5.80;;;5.30;;
8060;SDS011;4073;42.626;25.386;2022-08-19T10:59:21;6.00;;;5.33;;
8060;SDS011;4073;42.626;25.386;2022-08-19T11:01:49;5.67;;;5.27;;
8060;SDS011;4073;42.626;25.386;2022-08-19T11:04:16;5.70;;;5.23;;
8060;SDS011;4073;42.626;25.386;2022-08-19T11:06:44;6.07;;;5.47;;
8060;SDS011;4073;42.626;25.386;2022-08-19T11:09:12;7.27;;;5.60;;
8060;SDS011;4073;42.626;25.386;2022-08-19T11:11:45;5.83;;;5.33;;
8060;SDS011;4073;42.626;25.386;2022-08-19T11:14:13;6.47;;;5.90;;
8060;SDS011;4073;42.626;25.386;2022-08-19T11:16:40;6.43;;;5.27;;
8060;SDS011;4073;42.626;25.386;2022-08-19T11:19:07;5.70;;;5.13;;
8060;SDS011;4073;42.626;25.386;2022-08-19T11:21:35;6.97;;;4.57;;
8060;SDS011;4073;42.626;25.386;2022-08-19T11:24:07;5.63;;;5.03;;
8060;SDS011;4073;42.626;25.386;2022-08-19T11:26:40;5.83;;;5.33;;
8060;SDS011;4073;42.626;25.386;2022-08-19T11:29:08;5.87;;;5.10;;
8060;SDS011;4073;42.626;25.386;2022-08-19T11:31:39;6.30;;;5.80;;
8060;SDS011;4073;42.626;25.386;2022-08-19T11:34:07;5.90;;;5.40;;
8060;SDS011;4073;42.626;25.386;2022-08-19T11:36:36;7.33;;;5.60;;
8060;SDS011;4073;42.626;25.386;2022-08-19T11:39:05;5.33;;;4.83;;
8060;SDS011;4073;42.626;25.386;2022-08-19T11:41:32;5.70;;;5.20;;
8060;SDS011;4073;42.626;25.386;2022-08-19T11:43:58;5.93;;;5.33;;
8060;SDS011;4073;42.626;25.386;2022-08-19T11:46:25;6.00;;;5.40;;
8060;SDS011;4073;42.626;25.386;2022-08-19T11:48:54;5.73;;;5.23;;
8060;SDS011;4073;42.626;25.386;2022-08-19T11:51:24;6.33;;;5.73;;
8060;SDS011;4073;42.626;25.386;2022-08-19T11:53:51;5.90;;;5.37;;
8060;SDS011;4073;42.626;25.386;2022-08-19T11:56:18;8.17;;;6.23;;
8060;SDS011;4073;42.626;25.386;2022-08-19T11:58:44;6.63;;;5.87;;
8060;SDS011;4073;42.626;25.386;2022-08-19T12:01:11;6.47;;;5.60;;
8060;SDS011;4073;42.626;25.386;2022-08-19T12:03:40;6.23;;;5.60;;
8060;SDS011;4073;42.626;25.386;2022-08-19T12:06:06;7.03;;;6.40;;
8060;SDS011;4073;42.626;25.386;2022-08-19T12:08:37;6.33;;;5.73;;
8060;SDS011;4073;42.626;25.386;2022-08-19T12:11:03;5.77;;;5.27;;
8060;SDS011;4073;42.626;25.386;2022-08-19T12:13:30;6.23;;;5.23;;
8060;SDS011;4073;42.626;25.386;2022-08-19T12:15:56;5.73;;;5.30;;
8060;SDS011;4073;42.626;25.386;2022-08-19T12:18:23;7.53;;;5.60;;
8060;SDS011;4073;42.626;25.386;2022-08-19T12:20:50;6.47;;;5.87;;
8060;SDS011;4073;42.626;25.386;2022-08-19T12:23:16;6.93;;;6.27;;
8060;SDS011;4073;42.626;25.386;2022-08-19T12:25:46;6.47;;;5.40;;
8060;SDS011;4073;42.626;25.386;2022-08-19T12:28:17;7.03;;;6.33;;
8060;SDS011;4073;42.626;25.386;2022-08-19T12:30:47;8.30;;;6.00;;
8060;SDS011;4073;42.626;25.386;2022-08-19T12:33:15;5.93;;;5.43;;
8060;SDS011;4073;42.626;25.386;2022-08-19T12:35:41;7.00;;;6.40;;
8060;SDS011;4073;42.626;25.386;2022-08-19T12:38:07;7.90;;;5.83;;
8060;SDS011;4073;42.626;25.386;2022-08-19T12:40:33;6.10;;;5.47;;
8060;SDS011;4073;42.626;25.386;2022-08-19T12:42:59;6.37;;;5.57;;
8060;SDS011;4073;42.626;25.386;2022-08-19T12:45:24;6.40;;;5.77;;
8060;SDS011;4073;42.626;25.386;2022-08-19T12:47:49;6.20;;;5.70;;
8060;SDS011;4073;42.626;25.386;2022-08-19T12:50:17;6.50;;;5.90;;
8060;SDS011;4073;42.626;25.386;2022-08-19T12:52:44;7.43;;;5.77;;
8060;SDS011;4073;42.626;25.386;2022-08-19T12:55:09;6.50;;;5.33;;
8060;SDS011;4073;42.626;25.386;2022-08-19T12:57:36;6.43;;;5.80;;
8060;SDS011;4073;42.626;25.386;2022-08-19T13:00:09;6.13;;;5.53;;
8060;SDS011;4073;42.626;25.386;2022-08-19T13:02:46;6.40;;;5.90;;
8060;SDS011;4073;42.626;25.386;2022-08-19T13:05:15;6.17;;;5.70;;
8060;SDS011;4073;42.626;25.386;2022-08-19T13:07:45;6.77;;;5.73;;
8060;SDS011;4073;42.626;25.386;2022-08-19T13:10:12;5.83;;;5.23;;
8060;SDS011;4073;42.626;25.386;2022-08-19T13:12:40;7.37;;;5.77;;
8060;SDS011;4073;42.626;25.386;2022-08-19T13:15:07;5.90;;;5.33;;
8060;SDS011;4073;42.626;25.386;2022-08-19T13:17:34;6.40;;;5.80;;
8060;SDS011;4073;42.626;25.386;2022-08-19T13:20:00;5.67;;;5.23;;
8060;SDS011;4073;42.626;25.386;2022-08-19T13:22:26;6.03;;;5.53;;
8060;SDS011;4073;42.626;25.386;2022-08-19T13:24:52;6.37;;;5.77;;
8060;SDS011;4073;42.626;25.386;2022-08-19T13:27:17;6.73;;;5.97;;
8060;SDS011;4073;42.626;25.386;2022-08-19T13:29:43;6.73;;;6.13;;
8060;SDS011;4073;42.626;25.386;2022-08-19T13:32:28;7.13;;;5.80;;
8060;SDS011;4073;42.626;25.386;2022-08-19T13:35:13;7.80;;;5.60;;
8060;SDS011;4073;42.626;25.386;2022-08-19T13:37:38;6.30;;;5.73;;
8060;SDS011;4073;42.626;25.386;2022-08-19T13:40:08;7.47;;;5.77;;
8060;SDS011;4073;42.626;25.386;2022-08-19T13:42:37;5.93;;;5.27;;
8060;SDS011;4073;42.626;25.386;2022-08-19T13:45:04;6.57;;;5.83;;
8060;SDS011;4073;42.626;25.386;2022-08-19T13:47:33;6.47;;;5.47;;
8060;SDS011;4073;42.626;25.386;2022-08-19T13:50:08;6.70;;;5.50;;
8060;SDS011;4073;42.626;25.386;2022-08-19T13:52:35;6.37;;;5.73;;
8060;SDS011;4073;42.626;25.386;2022-08-19T13:55:01;7.87;;;5.77;;
8060;SDS011;4073;42.626;25.386;2022-08-19T13:57:27;6.43;;;5.87;;
8060;SDS011;4073;42.626;25.386;2022-08-19T13:59:52;6.73;;;6.07;;
8060;SDS011;4073;42.626;25.386;2022-08-19T14:02:18;5.83;;;5.33;;
8060;SDS011;4073;42.626;25.386;2022-08-19T14:04:44;6.27;;;5.67;;
8060;SDS011;4073;42.626;25.386;2022-08-19T14:07:09;6.90;;;5.73;;
8060;SDS011;4073;42.626;25.386;2022-08-19T14:09:35;6.37;;;5.43;;
8060;SDS011;4073;42.626;25.386;2022-08-19T14:12:00;10.57;;;5.73;;
8060;SDS011;4073;42.626;25.386;2022-08-19T14:14:26;6.23;;;5.73;;
8060;SDS011;4073;42.626;25.386;2022-08-19T14:16:51;6.03;;;5.53;;
8060;SDS011;4073;42.626;25.386;2022-08-19T14:19:17;6.17;;;5.60;;
8060;SDS011;4073;42.626;25.386;2022-08-19T14:21:42;7.87;;;5.63;;
8060;SDS011;4073;42.626;25.386;2022-08-19T14:24:08;5.63;;;5.13;;
8060;SDS011;4073;42.626;25.386;2022-08-19T14:26:33;8.97;;;6.00;;
8060;SDS011;4073;42.626;25.386;2022-08-19T14:28:59;6.30;;;5.77;;
8060;SDS011;4073;42.626;25.386;2022-08-19T14:31:25;5.77;;;5.20;;
8060;SDS011;4073;42.626;25.386;2022-08-19T14:33:51;7.90;;;5.80;;
8060;SDS011;4073;42.626;25.386;2022-08-19T14:36:17;6.23;;;5.63;;
8060;SDS011;4073;42.626;25.386;2022-08-19T14:38:45;8.77;;;6.23;;
8060;SDS011;4073;42.626;25.386;2022-08-19T14:41:18;6.13;;;5.53;;
8060;SDS011;4073;42.626;25.386;2022-08-19T14:43:47;7.70;;;5.80;;
8060;SDS011;4073;42.626;25.386;2022-08-19T14:46:15;6.60;;;5.90;;
8060;SDS011;4073;42.626;25.386;2022-08-19T14:48:42;7.60;;;6.07;;
8060;SDS011;4073;42.626;25.386;2022-08-19T14:51:08;9.30;;;5.53;;
8060;SDS011;4073;42.626;25.386;2022-08-19T14:53:34;6.13;;;5.50;;
8060;SDS011;4073;42.626;25.386;2022-08-19T14:56:00;7.53;;;6.10;;
8060;SDS011;4073;42.626;25.386;2022-08-19T14:58:26;6.20;;;5.60;;
8060;SDS011;4073;42.626;25.386;2022-08-19T15:00:52;9.37;;;6.17;;
8060;SDS011;4073;42.626;25.386;2022-08-19T15:03:17;6.20;;;5.60;;
8060;SDS011;4073;42.626;25.386;2022-08-19T15:05:43;6.50;;;5.90;;
8060;SDS011;4073;42.626;25.386;2022-08-19T15:08:09;7.87;;;5.70;;